sensor_id;sensor_type;location;lat;lon;timestamp;temperature;humidity
13742;DHT22;8461;52.356;10.704;2023-02-01T00:01:38;4.60;99.90
13742;DHT22;8461;52.356;10.704;2023-02-01T00:04:03;4.70;99.90
13742;DHT22;8461;52.356;10.704;2023-02-01T00:06:29;4.70;99.90
13742;DHT22;8461;52.356;10.704;2023-02-01T00:08:55;4.80;99.90
13742;DHT22;8461;52.356;10.704;2023-02-01T00:11:22;4.80;99.90
13742;DHT22;8461;52.356;10.704;2023-02-01T00:13:48;4.80;99.90
13742;DHT22;8461;52.356;10.704;2023-02-01T00:16:15;4.80;99.90
13742;DHT22;8461;52.356;10.704;2023-02-01T00:18:42;4.90;99.90
13742;DHT22;8461;52.356;10.704;2023-02-01T00:21:08;4.90;99.90
13742;DHT22;8461;52.356;10.704;2023-02-01T00:23:35;4.90;99.90
13742;DHT22;8461;52.356;10.704;2023-02-01T00:26:04;5.00;99.90
13742;DHT22;8461;52.356;10.704;2023-02-01T00:28:30;5.00;99.90
13742;DHT22;8461;52.356;10.704;2023-02-01T00:31:00;5.00;99.90
13742;DHT22;8461;52.356;10.704;2023-02-01T00:33:27;5.10;99.90
13742;DHT22;8461;52.356;10.704;2023-02-01T00:35:57;5.00;99.90
13742;DHT22;8461;52.356;10.704;2023-02-01T00:38:24;5.00;99.90
13742;DHT22;8461;52.356;10.704;2023-02-01T00:40:50;5.10;99.90
13742;DHT22;8461;52.356;10.704;2023-02-01T00:43:15;5.20;99.90
13742;DHT22;8461;52.356;10.704;2023-02-01T00:45:41;5.10;99.90
13742;DHT22;8461;52.356;10.704;2023-02-01T00:48:06;5.10;99.90
13742;DHT22;8461;52.356;10.704;2023-02-01T00:50:32;5.10;99.90
13742;DHT22;8461;52.356;10.704;2023-02-01T00:52:57;5.00;99.90
13742;DHT22;8461;52.356;10.704;2023-02-01T00:55:23;5.00;99.90
13742;DHT22;8461;52.356;10.704;2023-02-01T00:57:48;5.00;99.90
13742;DHT22;8461;52.356;10.704;2023-02-01T01:00:14;4.90;99.90
13742;DHT22;8461;52.356;10.704;2023-02-01T01:02:41;4.90;99.90
13742;DHT22;8461;52.356;10.704;2023-02-01T01:05:07;5.00;99.90
13742;DHT22;8461;52.356;10.704;2023-02-01T01:07:32;5.00;99.90
13742;DHT22;8461;52.356;10.704;2023-02-01T01:09:58;5.00;99.90
13742;DHT22;8461;52.356;10.704;2023-02-01T01:12:23;5.00;99.90
13742;DHT22;8461;52.356;10.704;2023-02-01T01:14:49;5.00;99.90
13742;DHT22;8461;52.356;10.704;2023-02-01T01:17:16;4.90;99.90
13742;DHT22;8461;52.356;10.704;2023-02-01T01:19:41;5.00;99.90
13742;DHT22;8461;52.356;10.704;2023-02-01T01:22:07;5.00;99.90
13742;DHT22;8461;52.356;10.704;2023-02-01T01:24:32;4.90;99.90
13742;DHT22;8461;52.356;10.704;2023-02-01T01:26:58;4.90;99.90
13742;DHT22;8461;52.356;10.704;2023-02-01T01:29:23;5.00;99.90
13742;DHT22;8461;52.356;10.704;2023-02-01T01:31:49;5.00;99.90
13742;DHT22;8461;52.356;10.704;2023-02-01T01:34:15;5.00;99.90
13742;DHT22;8461;52.356;10.704;2023-02-01T01:36:40;4.90;99.90
13742;DHT22;8461;52.356;10.704;2023-02-01T01:39:06;4.90;99.90
13742;DHT22;8461;52.356;10.704;2023-02-01T01:41:32;4.80;99.90
13742;DHT22;8461;52.356;10.704;2023-02-01T01:44:04;4.80;99.90
13742;DHT22;8461;52.356;10.704;2023-02-01T01:46:35;4.80;99.90
13742;DHT22;8461;52.356;10.704;2023-02-01T01:51:35;4.80;99.90
13742;DHT22;8461;52.356;10.704;2023-02-01T01:54:16;4.90;99.90
13742;DHT22;8461;52.356;10.704;2023-02-01T01:56:43;4.80;99.90
13742;DHT22;8461;52.356;10.704;2023-02-01T01:59:11;4.80;99.90
13742;DHT22;8461;52.356;10.704;2023-02-01T02:01:38;4.80;99.90
13742;DHT22;8461;52.356;10.704;2023-02-01T02:04:04;4.80;99.90
13742;DHT22;8461;52.356;10.704;2023-02-01T02:06:57;4.80;99.90
13742;DHT22;8461;52.356;10.704;2023-02-01T02:09:25;4.80;99.90
13742;DHT22;8461;52.356;10.704;2023-02-01T02:11:50;4.80;99.90
13742;DHT22;8461;52.356;10.704;2023-02-01T02:14:17;4.80;99.90
13742;DHT22;8461;52.356;10.704;2023-02-01T02:22:44;4.80;99.90
13742;DHT22;8461;52.356;10.704;2023-02-01T02:39:07;4.90;99.90
13742;DHT22;8461;52.356;10.704;2023-02-01T02:47:57;4.80;99.90
13742;DHT22;8461;52.356;10.704;2023-02-01T02:50:32;4.70;99.90
13742;DHT22;8461;52.356;10.704;2023-02-01T02:56:31;4.60;99.90
13742;DHT22;8461;52.356;10.704;2023-02-01T02:59:21;4.70;99.90
13742;DHT22;8461;52.356;10.704;2023-02-01T03:02:06;4.70;99.90
13742;DHT22;8461;52.356;10.704;2023-02-01T03:04:54;4.70;99.90
13742;DHT22;8461;52.356;10.704;2023-02-01T03:07:46;4.70;99.90
13742;DHT22;8461;52.356;10.704;2023-02-01T03:10:29;4.70;99.90
13742;DHT22;8461;52.356;10.704;2023-02-01T03:13:05;4.70;99.90
13742;DHT22;8461;52.356;10.704;2023-02-01T03:15:43;4.70;99.90
13742;DHT22;8461;52.356;10.704;2023-02-01T03:18:20;4.70;99.90
13742;DHT22;8461;52.356;10.704;2023-02-01T03:20:49;4.70;99.90
13742;DHT22;8461;52.356;10.704;2023-02-01T03:23:18;4.60;99.90
13742;DHT22;8461;52.356;10.704;2023-02-01T03:25:47;4.60;99.90
13742;DHT22;8461;52.356;10.704;2023-02-01T03:28:15;4.50;99.90
13742;DHT22;8461;52.356;10.704;2023-02-01T03:30:46;4.50;99.90
13742;DHT22;8461;52.356;10.704;2023-02-01T03:33:15;4.50;99.90
13742;DHT22;8461;52.356;10.704;2023-02-01T03:38:24;4.60;99.90
13742;DHT22;8461;52.356;10.704;2023-02-01T03:46:16;4.60;99.90
13742;DHT22;8461;52.356;10.704;2023-02-01T03:48:44;4.60;99.90
13742;DHT22;8461;52.356;10.704;2023-02-01T03:51:10;4.60;99.90
13742;DHT22;8461;52.356;10.704;2023-02-01T03:53:37;4.60;99.90
13742;DHT22;8461;52.356;10.704;2023-02-01T03:56:05;4.60;99.90
13742;DHT22;8461;52.356;10.704;2023-02-01T03:58:31;4.60;99.90
13742;DHT22;8461;52.356;10.704;2023-02-01T04:00:58;4.60;99.90
13742;DHT22;8461;52.356;10.704;2023-02-01T04:03:25;4.60;99.90
13742;DHT22;8461;52.356;10.704;2023-02-01T04:05:52;4.70;99.90
13742;DHT22;8461;52.356;10.704;2023-02-01T04:08:21;4.70;99.90
13742;DHT22;8461;52.356;10.704;2023-02-01T04:10:47;4.70;99.90
13742;DHT22;8461;52.356;10.704;2023-02-01T04:13:12;4.70;99.90
13742;DHT22;8461;52.356;10.704;2023-02-01T04:15:38;4.70;99.90
13742;DHT22;8461;52.356;10.704;2023-02-01T04:18:04;4.60;99.90
13742;DHT22;8461;52.356;10.704;2023-02-01T04:20:29;4.70;99.90
13742;DHT22;8461;52.356;10.704;2023-02-01T04:22:55;4.70;99.90
13742;DHT22;8461;52.356;10.704;2023-02-01T04:25:21;4.70;99.90
13742;DHT22;8461;52.356;10.704;2023-02-01T04:27:47;4.70;99.90
13742;DHT22;8461;52.356;10.704;2023-02-01T04:30:13;4.60;99.90
13742;DHT22;8461;52.356;10.704;2023-02-01T04:32:39;4.60;99.90
13742;DHT22;8461;52.356;10.704;2023-02-01T04:35:05;4.60;99.90
13742;DHT22;8461;52.356;10.704;2023-02-01T04:37:31;4.60;99.90
13742;DHT22;8461;52.356;10.704;2023-02-01T04:39:56;4.60;99.90
13742;DHT22;8461;52.356;10.704;2023-02-01T04:42:22;4.50;99.90
13742;DHT22;8461;52.356;10.704;2023-02-01T04:44:47;4.50;99.90
13742;DHT22;8461;52.356;10.704;2023-02-01T04:47:13;4.50;99.90
13742;DHT22;8461;52.356;10.704;2023-02-01T04:49:40;4.50;99.90
13742;DHT22;8461;52.356;10.704;2023-02-01T04:52:06;4.50;99.90
13742;DHT22;8461;52.356;10.704;2023-02-01T04:54:32;4.50;99.90
13742;DHT22;8461;52.356;10.704;2023-02-01T04:56:57;4.50;99.90
13742;DHT22;8461;52.356;10.704;2023-02-01T04:59:23;4.60;99.90
13742;DHT22;8461;52.356;10.704;2023-02-01T05:01:48;4.60;99.90
13742;DHT22;8461;52.356;10.704;2023-02-01T05:04:14;4.60;99.90
13742;DHT22;8461;52.356;10.704;2023-02-01T05:06:39;4.60;99.90
13742;DHT22;8461;52.356;10.704;2023-02-01T05:09:05;4.50;99.90
13742;DHT22;8461;52.356;10.704;2023-02-01T05:11:31;4.60;99.90
13742;DHT22;8461;52.356;10.704;2023-02-01T05:14:15;4.60;99.90
13742;DHT22;8461;52.356;10.704;2023-02-01T05:16:40;4.60;99.90
13742;DHT22;8461;52.356;10.704;2023-02-01T05:19:06;4.60;99.90
13742;DHT22;8461;52.356;10.704;2023-02-01T05:21:31;4.70;99.90
13742;DHT22;8461;52.356;10.704;2023-02-01T05:23:57;4.70;99.90
13742;DHT22;8461;52.356;10.704;2023-02-01T05:26:35;4.70;99.90
13742;DHT22;8461;52.356;10.704;2023-02-01T05:29:02;4.70;99.90
13742;DHT22;8461;52.356;10.704;2023-02-01T05:31:27;4.60;99.90
13742;DHT22;8461;52.356;10.704;2023-02-01T05:33:53;4.60;99.90
13742;DHT22;8461;52.356;10.704;2023-02-01T05:36:18;4.50;99.90
13742;DHT22;8461;52.356;10.704;2023-02-01T05:38:44;4.50;99.90
13742;DHT22;8461;52.356;10.704;2023-02-01T05:41:09;4.40;99.90
13742;DHT22;8461;52.356;10.704;2023-02-01T05:43:35;4.30;99.90
13742;DHT22;8461;52.356;10.704;2023-02-01T05:46:01;4.30;99.90
13742;DHT22;8461;52.356;10.704;2023-02-01T05:48:26;4.20;99.90
13742;DHT22;8461;52.356;10.704;2023-02-01T05:50:52;4.10;99.90
13742;DHT22;8461;52.356;10.704;2023-02-01T05:53:18;4.10;99.90
13742;DHT22;8461;52.356;10.704;2023-02-01T05:55:43;4.00;99.90
13742;DHT22;8461;52.356;10.704;2023-02-01T05:58:09;4.00;99.90
13742;DHT22;8461;52.356;10.704;2023-02-01T06:00:35;3.90;99.90
13742;DHT22;8461;52.356;10.704;2023-02-01T06:03:00;3.80;99.90
13742;DHT22;8461;52.356;10.704;2023-02-01T06:05:26;3.80;99.90
13742;DHT22;8461;52.356;10.704;2023-02-01T06:07:52;3.70;99.90
13742;DHT22;8461;52.356;10.704;2023-02-01T06:10:18;3.70;99.90
13742;DHT22;8461;52.356;10.704;2023-02-01T06:12:44;3.70;99.90
13742;DHT22;8461;52.356;10.704;2023-02-01T06:15:11;3.70;99.90
13742;DHT22;8461;52.356;10.704;2023-02-01T06:17:37;3.70;99.90
13742;DHT22;8461;52.356;10.704;2023-02-01T06:20:04;3.70;99.90
13742;DHT22;8461;52.356;10.704;2023-02-01T06:22:32;3.70;99.90
13742;DHT22;8461;52.356;10.704;2023-02-01T06:24:57;3.70;99.90
13742;DHT22;8461;52.356;10.704;2023-02-01T06:27:24;3.70;99.90
13742;DHT22;8461;52.356;10.704;2023-02-01T06:29:50;3.70;99.90
13742;DHT22;8461;52.356;10.704;2023-02-01T06:32:15;3.70;99.90
13742;DHT22;8461;52.356;10.704;2023-02-01T06:34:42;3.70;99.90
13742;DHT22;8461;52.356;10.704;2023-02-01T06:37:08;3.80;99.90
13742;DHT22;8461;52.356;10.704;2023-02-01T06:39:34;3.80;99.90
13742;DHT22;8461;52.356;10.704;2023-02-01T06:41:59;3.80;99.90
13742;DHT22;8461;52.356;10.704;2023-02-01T06:44:25;3.80;99.90
13742;DHT22;8461;52.356;10.704;2023-02-01T06:46:50;3.90;99.90
13742;DHT22;8461;52.356;10.704;2023-02-01T06:49:16;3.90;99.90
13742;DHT22;8461;52.356;10.704;2023-02-01T06:51:41;3.90;99.90
13742;DHT22;8461;52.356;10.704;2023-02-01T06:54:07;3.90;99.90
13742;DHT22;8461;52.356;10.704;2023-02-01T06:56:33;3.90;99.90
13742;DHT22;8461;52.356;10.704;2023-02-01T06:58:58;4.00;99.90
13742;DHT22;8461;52.356;10.704;2023-02-01T07:01:24;3.90;99.90
13742;DHT22;8461;52.356;10.704;2023-02-01T07:03:50;3.80;99.90
13742;DHT22;8461;52.356;10.704;2023-02-01T07:06:19;3.80;99.90
13742;DHT22;8461;52.356;10.704;2023-02-01T07:08:44;3.70;99.90
13742;DHT22;8461;52.356;10.704;2023-02-01T07:11:12;3.70;99.90
13742;DHT22;8461;52.356;10.704;2023-02-01T07:13:39;3.70;99.90
13742;DHT22;8461;52.356;10.704;2023-02-01T07:16:07;3.70;99.90
13742;DHT22;8461;52.356;10.704;2023-02-01T07:18:34;3.80;99.90
13742;DHT22;8461;52.356;10.704;2023-02-01T07:21:00;3.80;99.90
13742;DHT22;8461;52.356;10.704;2023-02-01T07:23:26;3.80;99.90
13742;DHT22;8461;52.356;10.704;2023-02-01T07:25:55;3.80;99.90
13742;DHT22;8461;52.356;10.704;2023-02-01T07:28:21;3.80;99.90
13742;DHT22;8461;52.356;10.704;2023-02-01T07:30:47;3.80;99.90
13742;DHT22;8461;52.356;10.704;2023-02-01T07:33:20;3.90;99.90
13742;DHT22;8461;52.356;10.704;2023-02-01T07:35:47;3.90;99.90
13742;DHT22;8461;52.356;10.704;2023-02-01T07:38:13;3.90;99.90
13742;DHT22;8461;52.356;10.704;2023-02-01T07:40:39;3.90;99.90
13742;DHT22;8461;52.356;10.704;2023-02-01T07:43:04;3.90;99.90
13742;DHT22;8461;52.356;10.704;2023-02-01T07:45:31;3.90;99.90
13742;DHT22;8461;52.356;10.704;2023-02-01T07:47:57;3.90;99.90
13742;DHT22;8461;52.356;10.704;2023-02-01T07:50:22;3.90;99.90
13742;DHT22;8461;52.356;10.704;2023-02-01T07:52:48;4.00;99.90
13742;DHT22;8461;52.356;10.704;2023-02-01T07:55:14;4.00;99.90
13742;DHT22;8461;52.356;10.704;2023-02-01T07:57:39;4.00;99.90
13742;DHT22;8461;52.356;10.704;2023-02-01T08:00:05;4.00;99.90
13742;DHT22;8461;52.356;10.704;2023-02-01T08:02:49;4.00;99.90
13742;DHT22;8461;52.356;10.704;2023-02-01T08:05:15;4.00;99.90
13742;DHT22;8461;52.356;10.704;2023-02-01T08:07:40;4.00;99.90
13742;DHT22;8461;52.356;10.704;2023-02-01T08:10:06;4.00;99.90
13742;DHT22;8461;52.356;10.704;2023-02-01T08:12:36;4.00;99.90
13742;DHT22;8461;52.356;10.704;2023-02-01T08:15:03;4.00;99.90
13742;DHT22;8461;52.356;10.704;2023-02-01T08:17:29;4.00;99.90
13742;DHT22;8461;52.356;10.704;2023-02-01T08:19:55;4.00;99.90
13742;DHT22;8461;52.356;10.704;2023-02-01T08:22:21;4.00;99.90
13742;DHT22;8461;52.356;10.704;2023-02-01T08:24:50;4.00;99.90
13742;DHT22;8461;52.356;10.704;2023-02-01T08:27:16;4.10;99.90
13742;DHT22;8461;52.356;10.704;2023-02-01T08:29:42;4.00;99.90
13742;DHT22;8461;52.356;10.704;2023-02-01T08:32:08;4.00;99.90
13742;DHT22;8461;52.356;10.704;2023-02-01T08:34:33;4.00;99.90
13742;DHT22;8461;52.356;10.704;2023-02-01T08:36:59;4.00;99.90
13742;DHT22;8461;52.356;10.704;2023-02-01T08:39:27;4.00;99.90
13742;DHT22;8461;52.356;10.704;2023-02-01T08:41:53;3.90;99.90
13742;DHT22;8461;52.356;10.704;2023-02-01T08:44:37;3.90;99.90
13742;DHT22;8461;52.356;10.704;2023-02-01T08:47:03;3.80;99.90
13742;DHT22;8461;52.356;10.704;2023-02-01T08:49:29;3.80;99.90
13742;DHT22;8461;52.356;10.704;2023-02-01T08:51:54;3.80;99.90
13742;DHT22;8461;52.356;10.704;2023-02-01T08:54:21;3.80;99.90
13742;DHT22;8461;52.356;10.704;2023-02-01T08:56:47;3.90;99.90
13742;DHT22;8461;52.356;10.704;2023-02-01T08:59:12;3.90;99.90
13742;DHT22;8461;52.356;10.704;2023-02-01T09:01:38;3.90;99.90
13742;DHT22;8461;52.356;10.704;2023-02-01T09:04:03;4.00;99.90
13742;DHT22;8461;52.356;10.704;2023-02-01T09:06:29;3.90;99.90
13742;DHT22;8461;52.356;10.704;2023-02-01T09:08:55;3.90;99.90
13742;DHT22;8461;52.356;10.704;2023-02-01T09:11:21;3.90;99.90
13742;DHT22;8461;52.356;10.704;2023-02-01T09:13:47;3.90;99.90
13742;DHT22;8461;52.356;10.704;2023-02-01T09:16:13;4.00;99.90
13742;DHT22;8461;52.356;10.704;2023-02-01T09:18:39;4.10;99.90
13742;DHT22;8461;52.356;10.704;2023-02-01T09:21:06;4.10;99.90
13742;DHT22;8461;52.356;10.704;2023-02-01T09:23:32;4.00;99.90
13742;DHT22;8461;52.356;10.704;2023-02-01T09:26:02;4.00;99.90
13742;DHT22;8461;52.356;10.704;2023-02-01T09:28:28;4.00;99.90
13742;DHT22;8461;52.356;10.704;2023-02-01T09:31:01;3.90;99.90
13742;DHT22;8461;52.356;10.704;2023-02-01T09:33:27;3.90;99.90
13742;DHT22;8461;52.356;10.704;2023-02-01T09:36:04;3.90;99.90
13742;DHT22;8461;52.356;10.704;2023-02-01T09:38:31;4.00;99.90
13742;DHT22;8461;52.356;10.704;2023-02-01T09:40:57;4.00;99.90
13742;DHT22;8461;52.356;10.704;2023-02-01T09:46:27;3.90;99.90
13742;DHT22;8461;52.356;10.704;2023-02-01T09:48:55;3.80;99.90
13742;DHT22;8461;52.356;10.704;2023-02-01T09:51:26;3.80;99.90
13742;DHT22;8461;52.356;10.704;2023-02-01T09:54:18;3.90;99.90
13742;DHT22;8461;52.356;10.704;2023-02-01T09:59:38;4.20;99.90
13742;DHT22;8461;52.356;10.704;2023-02-01T10:02:12;4.40;99.90
13742;DHT22;8461;52.356;10.704;2023-02-01T10:04:38;4.50;99.90
13742;DHT22;8461;52.356;10.704;2023-02-01T10:07:34;4.60;99.90
13742;DHT22;8461;52.356;10.704;2023-02-01T10:10:21;4.70;99.90
13742;DHT22;8461;52.356;10.704;2023-02-01T10:24:02;4.80;99.90
13742;DHT22;8461;52.356;10.704;2023-02-01T10:26:37;4.70;99.90
13742;DHT22;8461;52.356;10.704;2023-02-01T10:29:07;4.60;99.90
13742;DHT22;8461;52.356;10.704;2023-02-01T10:31:36;4.60;99.90
13742;DHT22;8461;52.356;10.704;2023-02-01T10:37:00;4.50;99.90
13742;DHT22;8461;52.356;10.704;2023-02-01T10:39:26;4.50;99.90
13742;DHT22;8461;52.356;10.704;2023-02-01T10:41:52;4.50;99.90
13742;DHT22;8461;52.356;10.704;2023-02-01T10:44:25;4.50;99.90
13742;DHT22;8461;52.356;10.704;2023-02-01T10:46:51;4.40;99.90
13742;DHT22;8461;52.356;10.704;2023-02-01T10:49:20;4.40;99.90
13742;DHT22;8461;52.356;10.704;2023-02-01T10:51:51;4.40;99.90
13742;DHT22;8461;52.356;10.704;2023-02-01T10:54:20;4.40;99.90
13742;DHT22;8461;52.356;10.704;2023-02-01T10:56:47;4.40;99.90
13742;DHT22;8461;52.356;10.704;2023-02-01T10:59:19;4.50;99.90
13742;DHT22;8461;52.356;10.704;2023-02-01T11:01:47;4.50;99.90
13742;DHT22;8461;52.356;10.704;2023-02-01T11:04:18;4.60;99.90
13742;DHT22;8461;52.356;10.704;2023-02-01T11:06:47;4.60;99.90
13742;DHT22;8461;52.356;10.704;2023-02-01T11:09:24;4.70;99.90
13742;DHT22;8461;52.356;10.704;2023-02-01T11:14:20;4.80;99.90
13742;DHT22;8461;52.356;10.704;2023-02-01T11:17:02;4.90;99.90
13742;DHT22;8461;52.356;10.704;2023-02-01T11:19:36;4.90;99.90
13742;DHT22;8461;52.356;10.704;2023-02-01T11:22:01;5.00;99.90
13742;DHT22;8461;52.356;10.704;2023-02-01T11:24:32;4.90;99.90
13742;DHT22;8461;52.356;10.704;2023-02-01T11:27:01;5.00;99.90
13742;DHT22;8461;52.356;10.704;2023-02-01T11:29:36;5.00;99.90
13742;DHT22;8461;52.356;10.704;2023-02-01T11:32:03;5.10;99.90
13742;DHT22;8461;52.356;10.704;2023-02-01T11:35:03;5.10;99.90
13742;DHT22;8461;52.356;10.704;2023-02-01T11:37:39;5.10;99.90
13742;DHT22;8461;52.356;10.704;2023-02-01T11:42:58;5.20;99.90
13742;DHT22;8461;52.356;10.704;2023-02-01T11:45:28;5.30;99.90
13742;DHT22;8461;52.356;10.704;2023-02-01T11:47:55;5.30;99.90
13742;DHT22;8461;52.356;10.704;2023-02-01T11:54:09;5.50;99.90
13742;DHT22;8461;52.356;10.704;2023-02-01T11:56:48;5.60;99.90
13742;DHT22;8461;52.356;10.704;2023-02-01T12:05:37;5.70;99.90
13742;DHT22;8461;52.356;10.704;2023-02-01T12:08:03;5.80;99.90
13742;DHT22;8461;52.356;10.704;2023-02-01T12:10:43;5.80;99.90
13742;DHT22;8461;52.356;10.704;2023-02-01T12:13:38;5.80;99.90
13742;DHT22;8461;52.356;10.704;2023-02-01T12:18:42;6.00;99.90
13742;DHT22;8461;52.356;10.704;2023-02-01T12:27:19;6.10;99.90
13742;DHT22;8461;52.356;10.704;2023-02-01T12:30:01;6.10;99.90
13742;DHT22;8461;52.356;10.704;2023-02-01T12:32:57;6.10;99.90
13742;DHT22;8461;52.356;10.704;2023-02-01T12:46:01;5.90;99.90
13742;DHT22;8461;52.356;10.704;2023-02-01T12:48:39;5.90;99.90
13742;DHT22;8461;52.356;10.704;2023-02-01T12:51:12;5.80;99.90
13742;DHT22;8461;52.356;10.704;2023-02-01T12:53:50;5.70;99.90
13742;DHT22;8461;52.356;10.704;2023-02-01T12:56:28;5.70;99.90
13742;DHT22;8461;52.356;10.704;2023-02-01T12:58:58;5.60;99.90
13742;DHT22;8461;52.356;10.704;2023-02-01T13:01:39;5.40;99.90
13742;DHT22;8461;52.356;10.704;2023-02-01T13:04:15;5.30;99.90
13742;DHT22;8461;52.356;10.704;2023-02-01T13:06:50;5.20;99.90
13742;DHT22;8461;52.356;10.704;2023-02-01T13:09:29;5.10;99.90
13742;DHT22;8461;52.356;10.704;2023-02-01T13:12:00;5.00;99.90
13742;DHT22;8461;52.356;10.704;2023-02-01T13:17:28;4.90;99.90
13742;DHT22;8461;52.356;10.704;2023-02-01T13:23:05;4.70;99.90
13742;DHT22;8461;52.356;10.704;2023-02-01T13:25:43;4.60;99.90
13742;DHT22;8461;52.356;10.704;2023-02-01T13:28:18;4.60;99.90
13742;DHT22;8461;52.356;10.704;2023-02-01T13:33:48;4.50;99.90
13742;DHT22;8461;52.356;10.704;2023-02-01T13:39:24;4.50;99.90
13742;DHT22;8461;52.356;10.704;2023-02-01T13:41:58;4.50;99.90
13742;DHT22;8461;52.356;10.704;2023-02-01T13:44:37;4.50;99.90
13742;DHT22;8461;52.356;10.704;2023-02-01T13:47:28;4.50;99.90
13742;DHT22;8461;52.356;10.704;2023-02-01T13:49:57;4.50;99.90
13742;DHT22;8461;52.356;10.704;2023-02-01T13:52:34;4.50;99.90
13742;DHT22;8461;52.356;10.704;2023-02-01T13:55:23;4.50;99.90
13742;DHT22;8461;52.356;10.704;2023-02-01T13:57:52;4.40;99.90
13742;DHT22;8461;52.356;10.704;2023-02-01T14:10:48;3.80;99.90
13742;DHT22;8461;52.356;10.704;2023-02-01T14:13:37;3.80;99.90
13742;DHT22;8461;52.356;10.704;2023-02-01T14:21:19;3.80;99.90
13742;DHT22;8461;52.356;10.704;2023-02-01T14:34:24;3.70;99.90
13742;DHT22;8461;52.356;10.704;2023-02-01T14:37:03;3.70;99.90
13742;DHT22;8461;52.356;10.704;2023-02-01T14:42:43;3.70;99.90
13742;DHT22;8461;52.356;10.704;2023-02-01T14:47:45;3.70;99.90
13742;DHT22;8461;52.356;10.704;2023-02-01T14:58:39;3.60;99.90
13742;DHT22;8461;52.356;10.704;2023-02-01T15:04:11;3.70;99.90
13742;DHT22;8461;52.356;10.704;2023-02-01T15:06:57;3.50;99.90
13742;DHT22;8461;52.356;10.704;2023-02-01T15:10:05;3.40;99.90
13742;DHT22;8461;52.356;10.704;2023-02-01T15:12:26;3.30;99.90
13742;DHT22;8461;52.356;10.704;2023-02-01T15:15:20;3.20;99.90
13742;DHT22;8461;52.356;10.704;2023-02-01T15:17:54;3.20;99.90
13742;DHT22;8461;52.356;10.704;2023-02-01T15:20:31;3.20;99.90
13742;DHT22;8461;52.356;10.704;2023-02-01T15:23:05;3.10;99.90
13742;DHT22;8461;52.356;10.704;2023-02-01T15:25:36;3.10;99.90
13742;DHT22;8461;52.356;10.704;2023-02-01T15:28:04;3.10;99.90
13742;DHT22;8461;52.356;10.704;2023-02-01T15:30:33;3.10;99.90
13742;DHT22;8461;52.356;10.704;2023-02-01T15:43:30;3.10;99.90
13742;DHT22;8461;52.356;10.704;2023-02-01T15:46:01;3.10;99.90
13742;DHT22;8461;52.356;10.704;2023-02-01T15:48:33;3.10;99.90
13742;DHT22;8461;52.356;10.704;2023-02-01T15:50:59;3.10;99.90
13742;DHT22;8461;52.356;10.704;2023-02-01T15:53:25;3.10;99.90
13742;DHT22;8461;52.356;10.704;2023-02-01T15:55:58;3.10;99.90
13742;DHT22;8461;52.356;10.704;2023-02-01T15:58:25;3.10;99.90
13742;DHT22;8461;52.356;10.704;2023-02-01T16:00:54;3.10;99.90
13742;DHT22;8461;52.356;10.704;2023-02-01T16:06:01;3.10;99.90
13742;DHT22;8461;52.356;10.704;2023-02-01T16:08:30;3.10;99.90
13742;DHT22;8461;52.356;10.704;2023-02-01T16:11:48;3.00;99.90
13742;DHT22;8461;52.356;10.704;2023-02-01T16:14:06;3.00;99.90
13742;DHT22;8461;52.356;10.704;2023-02-01T16:16:31;2.90;99.90
13742;DHT22;8461;52.356;10.704;2023-02-01T16:18:57;2.90;99.90
13742;DHT22;8461;52.356;10.704;2023-02-01T16:21:23;2.90;99.90
13742;DHT22;8461;52.356;10.704;2023-02-01T16:23:51;3.00;99.90
13742;DHT22;8461;52.356;10.704;2023-02-01T16:26:18;3.00;99.90
13742;DHT22;8461;52.356;10.704;2023-02-01T16:28:43;3.00;99.90
13742;DHT22;8461;52.356;10.704;2023-02-01T16:31:12;3.00;99.90
13742;DHT22;8461;52.356;10.704;2023-02-01T16:33:53;3.00;99.90
13742;DHT22;8461;52.356;10.704;2023-02-01T16:36:19;3.10;99.90
13742;DHT22;8461;52.356;10.704;2023-02-01T16:38:45;3.10;99.90
13742;DHT22;8461;52.356;10.704;2023-02-01T16:41:14;3.20;99.90
13742;DHT22;8461;52.356;10.704;2023-02-01T16:43:40;3.20;99.90
13742;DHT22;8461;52.356;10.704;2023-02-01T16:46:14;3.20;99.90
13742;DHT22;8461;52.356;10.704;2023-02-01T16:48:41;3.20;99.90
13742;DHT22;8461;52.356;10.704;2023-02-01T16:51:10;3.30;99.90
13742;DHT22;8461;52.356;10.704;2023-02-01T16:53:37;3.20;99.90
13742;DHT22;8461;52.356;10.704;2023-02-01T16:56:12;3.30;99.90
13742;DHT22;8461;52.356;10.704;2023-02-01T16:58:38;3.30;99.90
13742;DHT22;8461;52.356;10.704;2023-02-01T17:01:06;3.30;99.90
13742;DHT22;8461;52.356;10.704;2023-02-01T17:03:32;3.30;99.90
13742;DHT22;8461;52.356;10.704;2023-02-01T17:05:58;3.30;99.90
13742;DHT22;8461;52.356;10.704;2023-02-01T17:08:37;3.30;99.90
13742;DHT22;8461;52.356;10.704;2023-02-01T17:11:05;3.40;99.90
13742;DHT22;8461;52.356;10.704;2023-02-01T17:13:32;3.30;99.90
13742;DHT22;8461;52.356;10.704;2023-02-01T17:15:58;3.30;99.90
13742;DHT22;8461;52.356;10.704;2023-02-01T17:18:27;3.40;99.90
13742;DHT22;8461;52.356;10.704;2023-02-01T17:20:56;3.40;99.90
13742;DHT22;8461;52.356;10.704;2023-02-01T17:23:22;3.40;99.90
13742;DHT22;8461;52.356;10.704;2023-02-01T17:25:48;3.40;99.90
13742;DHT22;8461;52.356;10.704;2023-02-01T17:28:13;3.50;99.90
13742;DHT22;8461;52.356;10.704;2023-02-01T17:30:39;3.50;99.90
13742;DHT22;8461;52.356;10.704;2023-02-01T17:35:43;3.60;99.90
13742;DHT22;8461;52.356;10.704;2023-02-01T17:38:12;3.70;99.90
13742;DHT22;8461;52.356;10.704;2023-02-01T17:40:38;3.70;99.90
13742;DHT22;8461;52.356;10.704;2023-02-01T17:43:04;3.50;99.90
13742;DHT22;8461;52.356;10.704;2023-02-01T17:45:36;3.10;99.90
13742;DHT22;8461;52.356;10.704;2023-02-01T17:48:04;2.80;99.90
13742;DHT22;8461;52.356;10.704;2023-02-01T17:50:31;2.70;99.90
13742;DHT22;8461;52.356;10.704;2023-02-01T17:52:57;2.60;99.90
13742;DHT22;8461;52.356;10.704;2023-02-01T17:55:24;2.60;99.90
13742;DHT22;8461;52.356;10.704;2023-02-01T17:57:50;2.70;99.90
13742;DHT22;8461;52.356;10.704;2023-02-01T18:00:17;2.80;99.90
13742;DHT22;8461;52.356;10.704;2023-02-01T18:02:43;3.00;99.90
13742;DHT22;8461;52.356;10.704;2023-02-01T18:05:14;3.00;99.90
13742;DHT22;8461;52.356;10.704;2023-02-01T18:07:40;3.10;99.90
13742;DHT22;8461;52.356;10.704;2023-02-01T18:10:06;3.10;99.90
13742;DHT22;8461;52.356;10.704;2023-02-01T18:12:32;3.10;99.90
13742;DHT22;8461;52.356;10.704;2023-02-01T18:14:58;3.10;99.90
13742;DHT22;8461;52.356;10.704;2023-02-01T18:17:24;3.10;99.90
13742;DHT22;8461;52.356;10.704;2023-02-01T18:19:49;3.20;99.90
13742;DHT22;8461;52.356;10.704;2023-02-01T18:22:20;3.30;99.90
13742;DHT22;8461;52.356;10.704;2023-02-01T18:24:47;3.40;99.90
13742;DHT22;8461;52.356;10.704;2023-02-01T18:27:13;3.40;99.90
13742;DHT22;8461;52.356;10.704;2023-02-01T18:29:38;3.30;99.90
13742;DHT22;8461;52.356;10.704;2023-02-01T18:32:04;3.20;99.90
13742;DHT22;8461;52.356;10.704;2023-02-01T18:34:29;3.20;99.90
13742;DHT22;8461;52.356;10.704;2023-02-01T18:36:55;3.20;99.90
13742;DHT22;8461;52.356;10.704;2023-02-01T18:39:21;3.20;99.90
13742;DHT22;8461;52.356;10.704;2023-02-01T18:41:48;3.20;99.90
13742;DHT22;8461;52.356;10.704;2023-02-01T18:44:14;3.30;99.90